House, New Mexico
Current Conditions -  °F | °C
As of 2:56 AM on Thursday 23 Oct 2014 (Local Time) from K4MR Reporting Station
Haze Haze  
Wind Chill: 58°   Ceiling: 300
Heat Index: 58°   Visibility: 7mi
Dew Point: 56°   Wind: 17mph
Humidity: 95%   Direction: 210°SSW
Pressure: 30.14"   Gusts: 28mph
Location:  34.65°N, 103.9°W
Report Text: K4MR 230856Z AUTO 21015G24KT 7SM BR BKN003 14/13 A3014 RMK AO2 SLP161 T01420134 55002
Loading
Personal Weather Stations






























Interactive Weather Map
Tropical Storm Tracking
New forecast layout! Learn more

10-Day Weather Forecast

Advertisements
Track Severe Weather on mobile